Atlantic Beach, South Carolina
Current Conditions -  °F | °C
As of 12:53 PM on Thursday 18 Dec 2014 (Local Time) from KCRE Reporting Station
Clear Clear  
Wind Chill: 14°   Ceiling: Unl
Heat Index: 14°   Visibility: 10mi
Dew Point: -1°   Wind: 3mph
Humidity: 36%   Direction: NA
Pressure: 30.12"   Gusts: NA
Location:  33.8371°N, 78.6471°W
Report Text: KCRE 181753Z VRB03KT 10SM CLR 14/M01 A3012 RMK AO1 SLP199 T01391011 10139 20028 58022
Loading
Personal Weather Stations






























Interactive Weather Map New forecast layout! Learn more

10-Day Weather Forecast

Advertisements
Track Severe Weather on mobile